Mr. Cass — WDB5593 — position and weather

sailwx.info

Track history (hours):
 
Tides and Currents Weather Stations Pressure Air Temp Water Temp Dewpoint Dewpoint Depression Visibility Wind Speed Wind Dir Waves Ship Positions

Mr. Cass

Owner: Cass Marine Towing LLC, Marrero, LA. More information available from US FCC via Universal Licensing System and Coast Guard Vessel Documentation Center.

Last reported at 2015-May-25 13:33 UTC. Time now 2015-May-25 13:37 UTC.
Position N 29°54' W 090°07'.

Length 17 m; draft 3.5 m.

Type: Towing. MMSI: 366911310.

Date/timePositionNaut miles runAvg speedWind from/ knotsBaromVisibWave heightAir tempDewpointWater temp
2015-May-25 13:33N 29°54' W 090°07'0 0.0
2015-May-25 12:33N 29°54' W 090°07'0 0.0
2015-May-25 11:29N 29°54' W 090°07'0 0.0
2015-May-25 10:30N 29°54' W 090°07'0 0.0
2015-May-25 09:14N 29°54' W 090°07'0 0.0
2015-May-25 08:09N 29°54' W 090°07'0 0.0
2015-May-24 13:06N 29°54' W 090°07'0 0.0
2015-May-24 08:05N 29°54' W 090°07'0 0.0
2015-May-24 05:26N 29°54' W 090°07'0 0.0
2015-May-24 04:33N 29°54' W 090°07'0 0.0
2015-May-24 03:29N 29°54' W 090°07'0 0.0
2015-May-24 02:18N 29°54' W 090°07'0 0.0
2015-May-24 01:16N 29°54' W 090°07'0 0.0
2015-May-24 00:23N 29°54' W 090°07'0 0.0
2015-May-23 23:25N 29°54' W 090°07'0 0.0
2015-May-23 22:31N 29°54' W 090°07'0 0.0
2015-May-23 21:30N 29°54' W 090°07'0 0.0
2015-May-23 20:30N 29°54' W 090°07'0 0.0
2015-May-23 19:28N 29°54' W 090°07'0 0.0
2015-May-23 18:29N 29°54' W 090°07'0 0.0
2015-May-23 17:33N 29°54' W 090°07'0 0.0
2015-May-23 16:30N 29°54' W 090°07'0 0.0
2015-May-23 15:33N 29°54' W 090°07'0 0.0
2015-May-23 14:32N 29°54' W 090°07'0 0.0
2015-May-23 13:32N 29°54' W 090°07'0 0.0
2015-May-23 12:33N 29°54' W 090°07'0 0.0
2015-May-23 11:22N 29°54' W 090°07'0 0.0
2015-May-23 10:32N 29°54' W 090°07'0 0.0
2015-May-22 11:19N 29°54' W 090°07'0 0.0
2015-May-22 10:17N 29°54' W 090°07'0 0.0
2015-May-22 09:18N 29°54' W 090°07'0 0.0
2015-May-22 07:25N 29°54' W 090°07'0 0.0
2015-May-22 06:27N 29°54' W 090°07'0 0.0
2015-May-22 05:14N 29°54' W 090°07'0 0.0
2015-May-22 04:22N 29°54' W 090°07'0 0.0
2015-May-22 03:33N 29°54' W 090°07'0 0.0
2015-May-22 02:33N 29°54' W 090°07'0 0.0
2015-May-22 01:29N 29°54' W 090°07'0 0.1
2015-May-22 00:29N 29°54' W 090°07'0 0.0
2015-May-21 23:32N 29°54' W 090°07'0 0.0
2015-May-21 22:29N 29°54' W 090°07'0 0.0
2015-May-21 21:31N 29°54' W 090°07'4 0.1
2015-May-20 17:25N 29°56' W 090°12'3 2.3
2015-May-20 16:05N 29°57' W 090°09'2 2.6
2015-May-20 15:21N 29°55' W 090°08'1 1.2
2015-May-20 14:19N 29°54' W 090°07'3 2.3
2015-May-20 13:03N 29°55' W 090°04'2 2.6
2015-May-20 12:26N 29°57' W 090°04'1 0.9
2015-May-20 11:18N 29°57' W 090°03'4 2.0
2015-May-20 09:27N 29°56' W 089°59'1 0.3
2015-May-20 05:17N 29°54' W 089°59'3 3.0
2015-May-20 04:20N 29°52' W 090°01'3 3.1
2015-May-20 03:30N 29°50' W 090°03'3 1.4
2015-May-20 01:22N 29°53' W 090°04'0 0.1
2015-May-19 23:24N 29°53' W 090°04'0 0.0
2015-May-19 22:16N 29°53' W 090°04'3 0.3
2015-May-19 11:24N 29°54' W 090°07'1 0.3
2015-May-19 08:32N 29°55' W 090°08'3 3.2
2015-May-19 07:29N 29°55' W 090°04'3 2.8
2015-May-19 06:33N 29°57' W 090°02'1 1.1
2015-May-19 05:20N 29°57' W 090°01'0 0.0
2015-May-18 16:32N 29°57' W 090°01'6 5.7
2015-May-18 15:32N 29°54' W 090°07'2 0.7
2015-May-18 13:05N 29°55' W 090°08'1 1.2
2015-May-18 12:03N 29°54' W 090°07'0 0.0
2015-May-18 08:30N 29°54' W 090°07'7 1.0
2015-May-18 01:25N 29°59' W 090°01'1 1.0
2015-May-18 00:26N 29°60' W 090°00'2 1.5
2015-May-17 23:06N 29°58' W 090°02'1 1.0
2015-May-17 22:16N 29°57' W 090°02'6 1.0
2015-May-17 16:25N 29°54' W 090°07'0 0.0
2015-May-17 14:07N 29°54' W 090°07'0 0.0
2015-May-17 10:10N 29°54' W 090°07'0 0.0
2015-May-17 09:19N 29°54' W 090°07'0 0.0
2015-May-17 06:16N 29°54' W 090°07'0 0.0
2015-May-17 03:28N 29°54' W 090°07'0 0.0
2015-May-16 23:04N 29°54' W 090°07'2 0.1
2015-May-15 15:21N 29°57' W 090°08'  
Track history (hours):
 
Tides and Currents Weather Stations Pressure Air Temp Water Temp Dewpoint Dewpoint Depression Visibility Wind Speed Wind Dir Waves Ship Positions

Mr. Cass

Owner: Cass Marine Towing LLC, Marrero, LA. More information available from US FCC via Universal Licensing System and Coast Guard Vessel Documentation Center.

Last reported at 2015-May-25 13:33 UTC. Time now 2015-May-25 13:37 UTC.
Position N 29°54' W 090°07'.

Length 17 m; draft 3.5 m.

Type: Towing. MMSI: 366911310.

Date/timePositionNaut miles runAvg speedWind from/ knotsBaromVisibWave heightAir tempDewpointWater temp
2015-May-25 13:33N 29°54' W 090°07'0 0.0
2015-May-25 12:33N 29°54' W 090°07'0 0.0
2015-May-25 11:29N 29°54' W 090°07'0 0.0
2015-May-25 10:30N 29°54' W 090°07'0 0.0
2015-May-25 09:14N 29°54' W 090°07'0 0.0
2015-May-25 08:09N 29°54' W 090°07'0 0.0
2015-May-24 13:06N 29°54' W 090°07'0 0.0
2015-May-24 08:05N 29°54' W 090°07'0 0.0
2015-May-24 05:26N 29°54' W 090°07'0 0.0
2015-May-24 04:33N 29°54' W 090°07'0 0.0
2015-May-24 03:29N 29°54' W 090°07'0 0.0
2015-May-24 02:18N 29°54' W 090°07'0 0.0
2015-May-24 01:16N 29°54' W 090°07'0 0.0
2015-May-24 00:23N 29°54' W 090°07'0 0.0
2015-May-23 23:25N 29°54' W 090°07'0 0.0
2015-May-23 22:31N 29°54' W 090°07'0 0.0
2015-May-23 21:30N 29°54' W 090°07'0 0.0
2015-May-23 20:30N 29°54' W 090°07'0 0.0
2015-May-23 19:28N 29°54' W 090°07'0 0.0
2015-May-23 18:29N 29°54' W 090°07'0 0.0
2015-May-23 17:33N 29°54' W 090°07'0 0.0
2015-May-23 16:30N 29°54' W 090°07'0 0.0
2015-May-23 15:33N 29°54' W 090°07'0 0.0
2015-May-23 14:32N 29°54' W 090°07'0 0.0
2015-May-23 13:32N 29°54' W 090°07'0 0.0
2015-May-23 12:33N 29°54' W 090°07'0 0.0
2015-May-23 11:22N 29°54' W 090°07'0 0.0
2015-May-23 10:32N 29°54' W 090°07'0 0.0
2015-May-22 11:19N 29°54' W 090°07'0 0.0
2015-May-22 10:17N 29°54' W 090°07'0 0.0
2015-May-22 09:18N 29°54' W 090°07'0 0.0
2015-May-22 07:25N 29°54' W 090°07'0 0.0
2015-May-22 06:27N 29°54' W 090°07'0 0.0
2015-May-22 05:14N 29°54' W 090°07'0 0.0
2015-May-22 04:22N 29°54' W 090°07'0 0.0
2015-May-22 03:33N 29°54' W 090°07'0 0.0
2015-May-22 02:33N 29°54' W 090°07'0 0.0
2015-May-22 01:29N 29°54' W 090°07'0 0.1
2015-May-22 00:29N 29°54' W 090°07'0 0.0
2015-May-21 23:32N 29°54' W 090°07'0 0.0
2015-May-21 22:29N 29°54' W 090°07'0 0.0
2015-May-21 21:31N 29°54' W 090°07'4 0.1
2015-May-20 17:25N 29°56' W 090°12'3 2.3
2015-May-20 16:05N 29°57' W 090°09'2 2.6
2015-May-20 15:21N 29°55' W 090°08'1 1.2
2015-May-20 14:19N 29°54' W 090°07'3 2.3
2015-May-20 13:03N 29°55' W 090°04'2 2.6
2015-May-20 12:26N 29°57' W 090°04'1 0.9
2015-May-20 11:18N 29°57' W 090°03'4 2.0
2015-May-20 09:27N 29°56' W 089°59'1 0.3
2015-May-20 05:17N 29°54' W 089°59'3 3.0
2015-May-20 04:20N 29°52' W 090°01'3 3.1
2015-May-20 03:30N 29°50' W 090°03'3 1.4
2015-May-20 01:22N 29°53' W 090°04'0 0.1
2015-May-19 23:24N 29°53' W 090°04'0 0.0
2015-May-19 22:16N 29°53' W 090°04'3 0.3
2015-May-19 11:24N 29°54' W 090°07'1 0.3
2015-May-19 08:32N 29°55' W 090°08'3 3.2
2015-May-19 07:29N 29°55' W 090°04'3 2.8
2015-May-19 06:33N 29°57' W 090°02'1 1.1
2015-May-19 05:20N 29°57' W 090°01'0 0.0
2015-May-18 16:32N 29°57' W 090°01'6 5.7
2015-May-18 15:32N 29°54' W 090°07'2 0.7
2015-May-18 13:05N 29°55' W 090°08'1 1.2
2015-May-18 12:03N 29°54' W 090°07'0 0.0
2015-May-18 08:30N 29°54' W 090°07'7 1.0
2015-May-18 01:25N 29°59' W 090°01'1 1.0
2015-May-18 00:26N 29°60' W 090°00'2 1.5
2015-May-17 23:06N 29°58' W 090°02'1 1.0
2015-May-17 22:16N 29°57' W 090°02'6 1.0
2015-May-17 16:25N 29°54' W 090°07'0 0.0
2015-May-17 14:07N 29°54' W 090°07'0 0.0
2015-May-17 10:10N 29°54' W 090°07'0 0.0
2015-May-17 09:19N 29°54' W 090°07'0 0.0
2015-May-17 06:16N 29°54' W 090°07'0 0.0
2015-May-17 03:28N 29°54' W 090°07'0 0.0
2015-May-16 23:04N 29°54' W 090°07'2 0.1
2015-May-15 15:21N 29°57' W 090°08'  

Dump ship's entire track history